createdAt,value
2023-01-24T00:01:59.681Z,99754.41
2023-01-24T00:04:26.684Z,99750.66
2023-01-24T00:06:52.887Z,99750.50
2023-01-24T00:09:19.166Z,99758.19
2023-01-24T00:11:45.414Z,99750.94
2023-01-24T00:14:11.809Z,99759.59
2023-01-24T00:16:38.443Z,99756.66
2023-01-24T00:19:04.661Z,99758.00
2023-01-24T00:21:31.000Z,99761.22
2023-01-24T00:23:57.277Z,99764.56
2023-01-24T00:26:23.502Z,99767.75
2023-01-24T00:28:49.711Z,99768.28
2023-01-24T00:31:16.115Z,99763.50
2023-01-24T00:33:42.461Z,99765.84
2023-01-24T00:36:10.039Z,99770.84
2023-01-24T00:38:36.479Z,99772.03
2023-01-24T00:41:02.661Z,99771.72
2023-01-24T00:43:28.853Z,99756.34
2023-01-24T00:45:55.117Z,99752.38
2023-01-24T00:48:21.701Z,99751.91
2023-01-24T00:50:48.224Z,99744.47
2023-01-24T00:53:14.487Z,99744.16
2023-01-24T00:55:41.092Z,99743.03
2023-01-24T00:58:07.548Z,99743.53
2023-01-24T01:00:33.743Z,99743.22
2023-01-24T01:03:00.107Z,99748.03
2023-01-24T01:05:26.315Z,99752.84
2023-01-24T01:07:52.538Z,99756.03
2023-01-24T01:10:18.858Z,99746.91
2023-01-24T01:12:47.280Z,99735.81
2023-01-24T01:15:13.488Z,99740.66
2023-01-24T01:17:40.486Z,99734.84
2023-01-24T01:20:06.708Z,99740.69
2023-01-24T01:22:33.032Z,99745.31
2023-01-24T01:24:59.233Z,99752.13
2023-01-24T01:27:25.444Z,99746.34
2023-01-24T01:29:51.644Z,99739.72
2023-01-24T01:32:17.841Z,99737.41
2023-01-24T01:34:43.997Z,99734.44
2023-01-24T01:37:10.247Z,99747.22
2023-01-24T01:39:36.396Z,99748.38
2023-01-24T01:42:02.616Z,99760.31
2023-01-24T01:44:29.482Z,99747.38
2023-01-24T01:46:55.713Z,99742.44
2023-01-24T01:49:21.997Z,99751.72
2023-01-24T01:51:48.181Z,99758.19
2023-01-24T01:54:15.139Z,99759.31
2023-01-24T01:56:41.310Z,99772.72
2023-01-24T01:59:07.501Z,99782.03
2023-01-24T02:01:33.669Z,99753.38
2023-01-24T02:03:59.931Z,99760.81
2023-01-24T02:06:26.163Z,99762.97
2023-01-24T02:08:53.148Z,99764.16
2023-01-24T02:11:19.328Z,99762.81
2023-01-24T02:13:45.631Z,99770.94
2023-01-24T02:16:12.584Z,99769.59
2023-01-24T02:18:38.799Z,99774.22
2023-01-24T02:21:05.754Z,99783.34
2023-01-24T02:23:32.543Z,99773.22
2023-01-24T02:25:58.712Z,99776.88
2023-01-24T02:28:25.027Z,99777.22
2023-01-24T02:30:51.294Z,99771.25
2023-01-24T02:33:17.515Z,99771.56
2023-01-24T02:35:43.943Z,99778.00
2023-01-24T02:38:10.164Z,99772.88
2023-01-24T02:40:36.420Z,99769.72
2023-01-24T02:43:02.598Z,99774.34
2023-01-24T02:45:28.859Z,99780.78
2023-01-24T02:47:55.240Z,99777.63
2023-01-24T02:50:21.442Z,99770.88
2023-01-24T02:52:50.695Z,99772.00
2023-01-24T02:55:16.927Z,99764.41
2023-01-24T02:57:43.737Z,99770.03
2023-01-24T03:00:09.917Z,99764.22
2023-01-24T03:02:36.137Z,99765.38
2023-01-24T03:05:02.402Z,99768.34
2023-01-24T03:07:28.658Z,99768.50
2023-01-24T03:09:55.293Z,99766.84
2023-01-24T03:12:24.496Z,99759.06
2023-01-24T03:14:50.677Z,99761.22
2023-01-24T03:17:16.845Z,99760.53
2023-01-24T03:19:44.049Z,99757.25
2023-01-24T03:22:10.910Z,99755.91
2023-01-24T03:24:37.078Z,99760.53
2023-01-24T03:27:03.500Z,99749.28
2023-01-24T03:29:29.949Z,99749.59
2023-01-24T03:31:56.221Z,99746.28
2023-01-24T03:34:22.437Z,99749.09
2023-01-24T03:36:48.662Z,99750.22
2023-01-24T03:39:14.953Z,99752.38
2023-01-24T03:41:42.971Z,99748.72
2023-01-24T03:44:10.335Z,99755.66
2023-01-24T03:46:36.526Z,99756.00
2023-01-24T03:49:02.911Z,99749.19
2023-01-24T03:51:29.674Z,99767.03
2023-01-24T03:53:56.096Z,99750.50
2023-01-24T03:56:22.267Z,99760.38
2023-01-24T03:58:48.601Z,99751.94
2023-01-24T04:01:14.924Z,99748.66
2023-01-24T04:03:41.484Z,99740.22
2023-01-24T04:06:07.656Z,99753.44
2023-01-24T04:08:33.832Z,99745.69
2023-01-24T04:11:02.171Z,99750.28
2023-01-24T04:13:28.378Z,99749.63
2023-01-24T04:15:54.562Z,99747.28
2023-01-24T04:18:20.687Z,99745.78
2023-01-24T04:20:46.906Z,99751.06
2023-01-24T04:23:13.099Z,99760.13
2023-01-24T04:25:39.222Z,99751.56
2023-01-24T04:28:05.487Z,99756.00
2023-01-24T04:30:31.719Z,99752.69
2023-01-24T04:32:57.895Z,99760.75
2023-01-24T04:35:25.061Z,99753.97
2023-01-24T04:37:51.676Z,99748.00
2023-01-24T04:40:18.496Z,99744.84
2023-01-24T04:42:44.697Z,99746.84
2023-01-24T04:45:11.770Z,99742.69
2023-01-24T04:47:37.907Z,99734.09
2023-01-24T04:50:04.134Z,99730.78
2023-01-24T04:52:30.274Z,99753.06
2023-01-24T04:54:56.413Z,99750.59
2023-01-24T04:57:22.661Z,99749.06
2023-01-24T04:59:48.853Z,99739.63
2023-01-24T05:02:15.131Z,99745.19
2023-01-24T05:04:42.099Z,99749.81
2023-01-24T05:07:08.735Z,99746.50
2023-01-24T05:09:35.267Z,99746.81
2023-01-24T05:12:02.033Z,99760.16
2023-01-24T05:14:28.201Z,99759.31
2023-01-24T05:16:56.841Z,99764.91
2023-01-24T05:19:23.028Z,99761.75
2023-01-24T05:21:49.284Z,99768.34
2023-01-24T05:24:15.587Z,99767.84
2023-01-24T05:26:41.777Z,99766.16
2023-01-24T05:29:07.989Z,99771.75
2023-01-24T05:31:34.592Z,99763.16
2023-01-24T05:34:00.862Z,99766.91
2023-01-24T05:36:27.016Z,99787.38
2023-01-24T05:38:53.246Z,99784.88
2023-01-24T05:41:20.804Z,99781.56
2023-01-24T05:43:47.536Z,99787.13
2023-01-24T05:46:13.994Z,99788.13
2023-01-24T05:48:40.429Z,99785.66
2023-01-24T05:51:06.988Z,99787.75
2023-01-24T05:53:34.188Z,99793.19
2023-01-24T05:56:02.138Z,99793.34
2023-01-24T05:58:29.195Z,99790.03
2023-01-24T06:00:55.365Z,99788.34
2023-01-24T06:03:21.674Z,99793.78
2023-01-24T06:05:48.167Z,99795.72
2023-01-24T06:08:17.523Z,99798.69
2023-01-24T06:10:43.764Z,99788.28
2023-01-24T06:13:10.011Z,99794.53
2023-01-24T06:15:36.227Z,99801.78
2023-01-24T06:18:02.471Z,99801.78
2023-01-24T06:20:29.305Z,99797.63
2023-01-24T06:22:55.552Z,99807.34
2023-01-24T06:25:22.118Z,99812.59
2023-01-24T06:27:48.551Z,99812.59
2023-01-24T06:30:15.222Z,99813.59
2023-01-24T06:32:42.010Z,99819.72
2023-01-24T06:35:08.231Z,99823.16
2023-01-24T06:37:34.476Z,99825.94
2023-01-24T06:40:00.684Z,99831.22
2023-01-24T06:42:26.861Z,99818.19
2023-01-24T06:44:53.432Z,99827.25
2023-01-24T06:47:19.627Z,99824.63
2023-01-24T06:49:46.225Z,99838.31
2023-01-24T06:52:12.520Z,99839.22
2023-01-24T06:54:38.767Z,99840.22
2023-01-24T06:57:04.966Z,99829.88
2023-01-24T06:59:31.244Z,99839.59
2023-01-24T07:01:58.081Z,99831.56
2023-01-24T07:04:24.298Z,99824.88
2023-01-24T07:06:50.548Z,99828.22
2023-01-24T07:09:16.732Z,99833.47
2023-01-24T07:11:43.601Z,99849.38
2023-01-24T07:14:09.764Z,99841.75
2023-01-24T07:16:38.871Z,99842.56
2023-01-24T07:19:08.194Z,99850.50
2023-01-24T07:21:34.393Z,99854.22
2023-01-24T07:24:00.669Z,99854.81
2023-01-24T07:26:26.955Z,99857.25
2023-01-24T07:28:53.240Z,99851.00
2023-01-24T07:31:19.637Z,99858.88
2023-01-24T07:33:46.445Z,99861.59
2023-01-24T07:36:12.667Z,99860.69
2023-01-24T07:38:39.752Z,99866.06
2023-01-24T07:41:06.081Z,99865.47
2023-01-24T07:43:32.297Z,99868.50
2023-01-24T07:45:58.513Z,99861.75
2023-01-24T07:48:24.780Z,99868.28
2023-01-24T07:50:52.248Z,99875.81
2023-01-24T07:53:18.701Z,99870.25
2023-01-24T07:56:00.554Z,99874.13
2023-01-24T07:58:28.236Z,99871.84
2023-01-24T08:00:55.008Z,99865.41
2023-01-24T08:03:21.279Z,99865.09
2023-01-24T08:05:47.552Z,99868.34
2023-01-24T08:08:13.775Z,99863.72
2023-01-24T08:10:40.178Z,99861.78
2023-01-24T08:13:06.378Z,99863.88
2023-01-24T08:15:32.590Z,99874.97
2023-01-24T08:17:58.804Z,99862.28
2023-01-24T08:20:25.968Z,99859.81
2023-01-24T08:22:58.052Z,99864.31
2023-01-24T08:25:25.136Z,99868.47
2023-01-24T08:27:52.567Z,99865.22
2023-01-24T08:30:19.844Z,99858.25
2023-01-24T08:32:46.040Z,99867.63
2023-01-24T08:35:13.008Z,99866.34
2023-01-24T08:37:39.555Z,99878.22
2023-01-24T08:40:05.865Z,99873.25
2023-01-24T08:42:33.078Z,99874.44
2023-01-24T08:44:59.301Z,99883.22
2023-01-24T08:47:27.578Z,99879.25
2023-01-24T08:49:54.521Z,99872.63
2023-01-24T08:52:21.165Z,99876.50
2023-01-24T08:54:47.918Z,99882.19
2023-01-24T08:57:14.180Z,99884.22
2023-01-24T08:59:40.589Z,99888.09
2023-01-24T09:02:07.067Z,99890.09
2023-01-24T09:04:33.674Z,99896.59
2023-01-24T09:06:59.916Z,99894.13
2023-01-24T09:09:26.749Z,99887.16
2023-01-24T09:11:53.016Z,99896.16
2023-01-24T09:14:20.108Z,99906.78
2023-01-24T09:16:46.507Z,99905.16
2023-01-24T09:19:14.245Z,99897.16
2023-01-24T09:21:40.779Z,99897.81
2023-01-24T09:24:07.261Z,99904.78
2023-01-24T09:26:33.565Z,99899.38
2023-01-24T09:28:59.782Z,99905.44
2023-01-24T09:31:26.130Z,99906.16
2023-01-24T09:33:59.621Z,99903.81
2023-01-24T09:36:26.908Z,99899.50
2023-01-24T09:39:04.955Z,99909.28
2023-01-24T09:41:33.195Z,99906.75
2023-01-24T09:43:59.393Z,99909.97
2023-01-24T09:46:25.683Z,99901.88
2023-01-24T09:48:51.964Z,99899.44
2023-01-24T09:51:18.246Z,99900.88
2023-01-24T09:53:44.883Z,99895.34
2023-01-24T09:56:11.074Z,99889.03
2023-01-24T09:58:37.265Z,99905.66
2023-01-24T10:01:03.502Z,99903.25
2023-01-24T10:03:32.083Z,99901.41
2023-01-24T10:05:58.974Z,99892.97
2023-01-24T10:08:25.193Z,99898.47
2023-01-24T10:10:51.392Z,99895.00
2023-01-24T10:13:18.295Z,99897.88
2023-01-24T10:15:44.481Z,99896.19
2023-01-24T10:18:11.452Z,99902.91
2023-01-24T10:20:37.661Z,99895.50
2023-01-24T10:23:05.954Z,99894.03
2023-01-24T10:25:32.179Z,99901.59
2023-01-24T10:27:58.371Z,99893.78
2023-01-24T10:30:25.118Z,99895.84
2023-01-24T10:32:52.258Z,99894.38
2023-01-24T10:35:19.383Z,99896.56
2023-01-24T10:37:45.680Z,99884.59
2023-01-24T10:40:12.210Z,99889.50
2023-01-24T10:42:38.657Z,99880.03
2023-01-24T10:45:04.968Z,99888.41
2023-01-24T10:47:31.201Z,99877.13
2023-01-24T10:49:57.442Z,99879.16
2023-01-24T10:52:24.158Z,99884.03
2023-01-24T10:54:50.385Z,99881.75
2023-01-24T10:57:17.212Z,99887.44
2023-01-24T10:59:43.405Z,99884.13
2023-01-24T11:02:09.656Z,99886.19
2023-01-24T11:04:35.865Z,99883.69
2023-01-24T11:07:02.038Z,99881.19
2023-01-24T11:09:28.275Z,99884.44
2023-01-24T11:11:54.530Z,99890.59
2023-01-24T11:14:20.780Z,99880.31
2023-01-24T11:16:46.997Z,99892.25
2023-01-24T11:19:13.288Z,99891.50
2023-01-24T11:21:39.493Z,99887.69
2023-01-24T11:24:05.825Z,99888.22
2023-01-24T11:26:32.065Z,99880.38
2023-01-24T11:28:58.447Z,99887.88
2023-01-24T11:31:24.783Z,99883.88
2023-01-24T11:33:51.085Z,99879.06
2023-01-24T11:36:17.591Z,99879.53
2023-01-24T11:38:44.902Z,99876.56
2023-01-24T11:41:11.405Z,99878.06
2023-01-24T11:43:37.819Z,99867.63
2023-01-24T11:46:04.192Z,99869.69
2023-01-24T11:48:31.102Z,99862.53
2023-01-24T11:51:11.823Z,99854.75
2023-01-24T11:53:39.308Z,99859.91
2023-01-24T11:56:06.059Z,99870.16
2023-01-24T11:58:32.295Z,99861.72
2023-01-24T12:00:59.580Z,99845.28
2023-01-24T12:03:25.830Z,99843.84
2023-01-24T12:05:52.589Z,99848.16
2023-01-24T12:08:19.845Z,99848.97
2023-01-24T12:10:46.557Z,99832.53
2023-01-24T12:13:13.247Z,99837.63
2023-01-24T12:15:39.513Z,99835.75
2023-01-24T12:18:06.120Z,99832.84
2023-01-24T12:20:32.961Z,99831.56
2023-01-24T12:23:00.817Z,99832.78
2023-01-24T12:25:27.089Z,99827.84
2023-01-24T12:27:53.270Z,99821.25
2023-01-24T12:30:19.489Z,99825.09
2023-01-24T12:32:45.759Z,99817.50
2023-01-24T12:35:11.953Z,99819.75
2023-01-24T12:37:38.328Z,99813.97
2023-01-24T12:40:04.531Z,99818.66
2023-01-24T12:42:30.961Z,99819.06
2023-01-24T12:44:57.159Z,99819.44
2023-01-24T12:47:24.722Z,99816.78
2023-01-24T12:49:51.834Z,99824.16
2023-01-24T12:52:18.147Z,99816.34
2023-01-24T12:54:44.327Z,99817.53
2023-01-24T12:57:10.624Z,99815.06
2023-01-24T12:59:37.149Z,99819.75
2023-01-24T13:02:03.371Z,99808.25
2023-01-24T13:04:29.936Z,99803.13
2023-01-24T13:06:56.183Z,99805.19
2023-01-24T13:09:23.180Z,99800.03
2023-01-24T13:11:49.435Z,99794.88
2023-01-24T13:14:15.771Z,99798.78
2023-01-24T13:16:42.036Z,99792.63
2023-01-24T13:19:08.335Z,99798.13
2023-01-24T13:21:34.975Z,99790.97
2023-01-24T13:24:01.282Z,99792.13
2023-01-24T13:26:27.546Z,99797.47
2023-01-24T13:28:53.786Z,99797.75
2023-01-24T13:31:20.091Z,99799.25
2023-01-24T13:33:46.371Z,99800.38
2023-01-24T13:36:13.032Z,99797.84
2023-01-24T13:38:39.204Z,99804.66
2023-01-24T13:41:06.574Z,99803.47
2023-01-24T13:43:33.560Z,99805.81
2023-01-24T13:46:01.868Z,99810.78
2023-01-24T13:48:28.911Z,99819.66
2023-01-24T13:50:55.184Z,99811.69
2023-01-24T13:53:21.364Z,99806.78
2023-01-24T13:55:48.340Z,99806.78
2023-01-24T13:58:15.191Z,99799.78
2023-01-24T14:00:41.385Z,99814.19
2023-01-24T14:03:07.775Z,99805.97
2023-01-24T14:05:33.943Z,99804.94
2023-01-24T14:08:00.138Z,99802.88
2023-01-24T14:10:26.333Z,99800.97
2023-01-24T14:12:53.370Z,99799.91
2023-01-24T14:15:19.576Z,99798.47
2023-01-24T14:17:45.871Z,99795.19
2023-01-24T14:20:12.923Z,99797.22
2023-01-24T14:22:39.162Z,99809.28
2023-01-24T14:25:05.609Z,99803.72
2023-01-24T14:27:31.870Z,99816.81
2023-01-24T14:29:58.159Z,99817.63
2023-01-24T14:32:24.400Z,99825.19
2023-01-24T14:34:51.366Z,99826.78
2023-01-24T14:37:17.720Z,99825.72
2023-01-24T14:39:44.984Z,99830.59
2023-01-24T14:42:11.487Z,99833.84
2023-01-24T14:44:37.737Z,99822.75
2023-01-24T14:47:04.036Z,99826.81
2023-01-24T14:49:30.234Z,99830.03
2023-01-24T14:52:00.541Z,99832.25
2023-01-24T14:54:31.806Z,99827.31
2023-01-24T14:56:58.005Z,99827.72
2023-01-24T14:59:24.169Z,99825.44
2023-01-24T15:01:53.644Z,99830.13
2023-01-24T15:04:19.911Z,99831.09
2023-01-24T15:06:46.133Z,99822.13
2023-01-24T15:09:14.273Z,99829.47
2023-01-24T15:11:40.495Z,99826.97
2023-01-24T15:14:06.728Z,99832.13
2023-01-24T15:16:33.077Z,99832.97
2023-01-24T15:18:59.483Z,99820.44
2023-01-24T15:21:26.491Z,99823.09
2023-01-24T15:23:52.828Z,99820.44
2023-01-24T15:26:19.277Z,99822.13
2023-01-24T15:28:45.788Z,99821.75
2023-01-24T15:31:12.096Z,99819.72
2023-01-24T15:33:38.385Z,99820.59
2023-01-24T15:36:04.712Z,99816.97
2023-01-24T15:38:31.296Z,99819.94
2023-01-24T15:40:57.592Z,99816.09
2023-01-24T15:43:23.857Z,99815.13
2023-01-24T15:45:50.094Z,99818.09
2023-01-24T15:48:16.355Z,99813.63
2023-01-24T15:50:43.208Z,99822.69
2023-01-24T15:53:09.466Z,99817.97
2023-01-24T15:55:36.611Z,99821.47
2023-01-24T15:58:02.829Z,99818.16
2023-01-24T16:00:29.163Z,99813.66
2023-01-24T16:02:55.390Z,99812.03
2023-01-24T16:05:21.626Z,99817.34
2023-01-24T16:07:47.802Z,99810.16
2023-01-24T16:10:15.179Z,99815.25
2023-01-24T16:12:41.848Z,99815.03
2023-01-24T16:15:09.952Z,99815.41
2023-01-24T16:17:36.450Z,99816.41
2023-01-24T16:20:05.964Z,99820.13
2023-01-24T16:22:33.818Z,99816.38
2023-01-24T16:25:00.930Z,99815.94
2023-01-24T16:27:27.133Z,99812.66
2023-01-24T16:29:54.304Z,99821.69
2023-01-24T16:32:20.646Z,99811.56
2023-01-24T16:34:46.900Z,99816.50
2023-01-24T16:37:13.204Z,99822.19
2023-01-24T16:39:39.429Z,99818.09
2023-01-24T16:42:05.812Z,99813.75
2023-01-24T16:44:32.260Z,99815.00
2023-01-24T16:46:59.277Z,99814.34
2023-01-24T16:49:25.587Z,99811.69
2023-01-24T16:51:51.933Z,99813.53
2023-01-24T16:54:18.369Z,99808.00
2023-01-24T16:56:44.573Z,99808.00
2023-01-24T16:59:11.628Z,99810.66
2023-01-24T17:01:38.355Z,99802.84
2023-01-24T17:04:04.799Z,99805.53
2023-01-24T17:06:31.044Z,99801.03
2023-01-24T17:08:57.324Z,99803.69
2023-01-24T17:11:23.724Z,99798.34
2023-01-24T17:13:50.115Z,99795.69
2023-01-24T17:16:16.388Z,99794.03
2023-01-24T17:18:43.210Z,99801.22
2023-01-24T17:21:09.397Z,99796.88
2023-01-24T17:23:36.164Z,99798.13
2023-01-24T17:26:03.384Z,99806.31
2023-01-24T17:28:29.670Z,99806.47
2023-01-24T17:30:55.886Z,99807.50
2023-01-24T17:33:22.375Z,99797.03
2023-01-24T17:35:48.719Z,99804.41
2023-01-24T17:38:14.942Z,99805.59
2023-01-24T17:40:41.213Z,99807.47
2023-01-24T17:43:08.102Z,99801.50
2023-01-24T17:45:34.322Z,99806.81
2023-01-24T17:48:00.635Z,99801.69
2023-01-24T17:50:27.024Z,99807.84
2023-01-24T17:52:53.841Z,99807.03
2023-01-24T17:55:20.722Z,99806.19
2023-01-24T17:57:46.949Z,99805.19
2023-01-24T18:00:13.806Z,99794.69
2023-01-24T18:02:40.750Z,99795.72
2023-01-24T18:05:09.112Z,99796.75
2023-01-24T18:07:35.334Z,99795.91
2023-01-24T18:10:01.702Z,99792.41
2023-01-24T18:12:28.155Z,99793.88
2023-01-24T18:14:54.574Z,99783.28
2023-01-24T18:17:21.250Z,99779.66
2023-01-24T18:19:49.503Z,99784.63
2023-01-24T18:22:18.497Z,99784.91
2023-01-24T18:24:47.408Z,99780.28
2023-01-24T18:27:13.644Z,99779.06
2023-01-24T18:29:40.538Z,99781.41
2023-01-24T18:34:50.946Z,99776.81
2023-01-24T18:37:17.135Z,99777.28
2023-01-24T18:39:43.420Z,99783.28
2023-01-24T18:42:10.178Z,99783.91
2023-01-24T18:44:36.491Z,99774.09
2023-01-24T18:47:05.854Z,99778.00
2023-01-24T18:49:32.091Z,99777.81
2023-01-24T18:51:58.309Z,99779.28
2023-01-24T18:54:24.495Z,99775.63
2023-01-24T18:56:51.252Z,99774.78
2023-01-24T18:59:17.451Z,99784.47
2023-01-24T19:01:43.860Z,99780.34
2023-01-24T19:04:10.232Z,99789.41
2023-01-24T19:06:36.473Z,99778.13
2023-01-24T19:09:04.727Z,99787.41
2023-01-24T19:11:31.353Z,99776.31
2023-01-24T19:13:57.820Z,99779.63
2023-01-24T19:16:24.587Z,99775.06
2023-01-24T19:18:50.842Z,99771.19
2023-01-24T19:21:17.301Z,99763.56
2023-01-24T19:23:43.608Z,99758.63
2023-01-24T19:26:09.880Z,99754.06
2023-01-24T19:28:36.484Z,99750.78
2023-01-24T19:31:03.654Z,99756.53
2023-01-24T19:33:30.564Z,99752.00
2023-01-24T19:35:57.730Z,99756.31
2023-01-24T19:38:23.906Z,99754.47
2023-01-24T19:40:50.093Z,99754.25
2023-01-24T19:43:17.841Z,99748.66
2023-01-24T19:45:44.099Z,99757.50
2023-01-24T19:48:10.908Z,99755.25
2023-01-24T19:50:37.152Z,99750.47
2023-01-24T19:53:03.712Z,99754.56
2023-01-24T19:55:29.944Z,99757.66
2023-01-24T19:57:56.373Z,99760.09
2023-01-24T20:00:22.768Z,99754.34
2023-01-24T20:02:49.072Z,99753.91
2023-01-24T20:05:16.256Z,99755.75
2023-01-24T20:07:42.608Z,99759.66
2023-01-24T20:10:09.082Z,99760.22
2023-01-24T20:12:35.423Z,99767.41
2023-01-24T20:15:01.609Z,99773.59
2023-01-24T20:17:28.120Z,99770.34
2023-01-24T20:20:00.546Z,99764.59
2023-01-24T20:22:28.042Z,99768.53
2023-01-24T20:24:54.274Z,99764.66
2023-01-24T20:27:20.939Z,99770.44
2023-01-24T20:29:47.184Z,99769.44
2023-01-24T20:32:14.969Z,99777.47
2023-01-24T20:34:44.802Z,99770.91
2023-01-24T20:37:11.181Z,99776.88
2023-01-24T20:39:37.870Z,99778.94
2023-01-24T20:42:04.096Z,99782.22
2023-01-24T20:44:30.415Z,99778.38
2023-01-24T20:46:56.988Z,99781.66
2023-01-24T20:49:26.456Z,99783.72
2023-01-24T20:51:53.457Z,99772.56
2023-01-24T20:54:19.691Z,99781.81
2023-01-24T20:56:46.099Z,99782.44
2023-01-24T20:59:12.305Z,99780.34
2023-01-24T21:01:38.635Z,99779.34
2023-01-24T21:04:04.873Z,99773.59
2023-01-24T21:06:31.110Z,99772.53
2023-01-24T21:08:57.333Z,99770.50
2023-01-24T21:11:23.593Z,99777.47
2023-01-24T21:13:49.932Z,99782.38
2023-01-24T21:16:16.145Z,99775.78
2023-01-24T21:18:42.956Z,99776.41
2023-01-24T21:21:09.177Z,99775.34
2023-01-24T21:23:35.392Z,99778.63
2023-01-24T21:26:01.728Z,99772.03
2023-01-24T21:28:27.964Z,99769.97
2023-01-24T21:30:54.411Z,99773.88
2023-01-24T21:33:20.735Z,99769.94
2023-01-24T21:35:47.279Z,99761.72
2023-01-24T21:38:13.605Z,99767.66
2023-01-24T21:40:39.967Z,99762.69
2023-01-24T21:43:07.762Z,99765.78
2023-01-24T21:45:34.061Z,99757.13
2023-01-24T21:48:00.950Z,99761.84
2023-01-24T21:50:27.647Z,99764.50
2023-01-24T21:52:54.028Z,99763.06
2023-01-24T21:55:20.227Z,99758.72
2023-01-24T21:57:46.918Z,99754.41
2023-01-24T22:00:13.301Z,99751.94
2023-01-24T22:02:39.676Z,99752.94
2023-01-24T22:05:06.475Z,99750.50
2023-01-24T22:07:33.046Z,99747.19
2023-01-24T22:09:59.259Z,99743.91
2023-01-24T22:12:26.432Z,99736.91
2023-01-24T22:14:53.531Z,99741.63
2023-01-24T22:17:19.849Z,99736.69
2023-01-24T22:19:46.137Z,99737.09
2023-01-24T22:22:23.605Z,99734.78
2023-01-24T22:24:50.646Z,99727.19
2023-01-24T22:27:17.720Z,99720.44
2023-01-24T22:29:43.962Z,99724.50
2023-01-24T22:32:10.909Z,99721.59
2023-01-24T22:34:37.241Z,99723.44
2023-01-24T22:37:04.425Z,99724.84
2023-01-24T22:39:30.663Z,99722.38
2023-01-24T22:41:57.270Z,99728.94
2023-01-24T22:44:23.539Z,99717.00
2023-01-24T22:46:49.815Z,99720.09
2023-01-24T22:49:16.966Z,99718.63
2023-01-24T22:51:43.178Z,99719.03
2023-01-24T22:54:09.471Z,99716.56
2023-01-24T22:56:36.618Z,99713.44
2023-01-24T22:59:03.054Z,99708.31
2023-01-24T23:01:29.322Z,99713.03
2023-01-24T23:03:55.564Z,99710.56
2023-01-24T23:06:21.960Z,99702.13
2023-01-24T23:08:48.184Z,99709.50
2023-01-24T23:11:15.342Z,99708.41
2023-01-24T23:13:41.615Z,99703.69
2023-01-24T23:16:08.415Z,99704.25
2023-01-24T23:18:34.666Z,99702.19
2023-01-24T23:21:00.906Z,99708.03
2023-01-24T23:23:27.104Z,99713.09
2023-01-24T23:25:53.307Z,99702.88
2023-01-24T23:28:19.536Z,99697.38
2023-01-24T23:30:45.753Z,99702.97
2023-01-24T23:33:12.000Z,99702.19
2023-01-24T23:35:38.334Z,99692.41
2023-01-24T23:38:04.556Z,99691.22
2023-01-24T23:40:30.818Z,99694.53
2023-01-24T23:45:41.542Z,99688.75
2023-01-24T23:48:07.944Z,99675.91
2023-01-24T23:50:34.155Z,99678.03
2023-01-24T23:53:00.531Z,99678.09
2023-01-24T23:55:26.750Z,99676.53
2023-01-24T23:57:53.318Z,99673.97
